sensor_id;sensor_type;location;lat;lon;timestamp;temperature;humidity
72928;SHT30;61071;51.618;19.388;2023-06-10T00:01:47;18.12;77.88
72928;SHT30;61071;51.618;19.388;2023-06-10T00:04:14;18.03;77.73
72928;SHT30;61071;51.618;19.388;2023-06-10T00:06:41;18.12;77.48
72928;SHT30;61071;51.618;19.388;2023-06-10T00:09:06;18.08;77.79
72928;SHT30;61071;51.618;19.388;2023-06-10T00:11:40;18.40;76.69
72928;SHT30;61071;51.618;19.388;2023-06-10T00:14:06;18.61;76.13
72928;SHT30;61071;51.618;19.388;2023-06-10T00:16:32;18.68;75.94
72928;SHT30;61071;51.618;19.388;2023-06-10T00:19:00;18.47;76.54
72928;SHT30;61071;51.618;19.388;2023-06-10T00:21:27;18.50;76.44
72928;SHT30;61071;51.618;19.388;2023-06-10T00:23:53;18.60;76.22
72928;SHT30;61071;51.618;19.388;2023-06-10T00:26:18;18.36;76.72
72928;SHT30;61071;51.618;19.388;2023-06-10T00:28:44;18.19;77.28
72928;SHT30;61071;51.618;19.388;2023-06-10T00:31:10;18.14;77.81
72928;SHT30;61071;51.618;19.388;2023-06-10T00:33:36;18.28;77.63
72928;SHT30;61071;51.618;19.388;2023-06-10T00:36:01;18.16;77.84
72928;SHT30;61071;51.618;19.388;2023-06-10T00:38:26;17.96;78.51
72928;SHT30;61071;51.618;19.388;2023-06-10T00:40:52;17.99;78.29
72928;SHT30;61071;51.618;19.388;2023-06-10T00:43:17;18.13;78.11
72928;SHT30;61071;51.618;19.388;2023-06-10T00:45:43;18.13;78.32
72928;SHT30;61071;51.618;19.388;2023-06-10T00:48:08;17.99;79.04
72928;SHT30;61071;51.618;19.388;2023-06-10T00:50:34;18.13;78.41
72928;SHT30;61071;51.618;19.388;2023-06-10T00:53:00;18.14;78.70
72928;SHT30;61071;51.618;19.388;2023-06-10T00:55:26;18.19;78.66
72928;SHT30;61071;51.618;19.388;2023-06-10T00:57:53;17.93;79.05
72928;SHT30;61071;51.618;19.388;2023-06-10T01:00:19;17.92;79.25
72928;SHT30;61071;51.618;19.388;2023-06-10T01:02:44;17.95;78.86
72928;SHT30;61071;51.618;19.388;2023-06-10T01:05:10;18.17;78.08
72928;SHT30;61071;51.618;19.388;2023-06-10T01:11:08;17.92;78.81
72928;SHT30;61071;51.618;19.388;2023-06-10T01:13:39;17.99;78.60
72928;SHT30;61071;51.618;19.388;2023-06-10T01:16:06;18.06;78.46
72928;SHT30;61071;51.618;19.388;2023-06-10T01:18:33;18.06;78.86
72928;SHT30;61071;51.618;19.388;2023-06-10T01:20:58;18.03;78.75
72928;SHT30;61071;51.618;19.388;2023-06-10T01:23:24;18.03;78.52
72928;SHT30;61071;51.618;19.388;2023-06-10T01:25:57;18.03;78.11
72928;SHT30;61071;51.618;19.388;2023-06-10T01:28:44;18.05;78.29
72928;SHT30;61071;51.618;19.388;2023-06-10T01:31:33;18.05;78.43
72928;SHT30;61071;51.618;19.388;2023-06-10T01:34:07;18.10;78.05
72928;SHT30;61071;51.618;19.388;2023-06-10T01:36:35;18.03;78.62
72928;SHT30;61071;51.618;19.388;2023-06-10T01:39:02;17.96;78.93
72928;SHT30;61071;51.618;19.388;2023-06-10T01:41:29;18.08;78.78
72928;SHT30;61071;51.618;19.388;2023-06-10T01:43:56;18.06;78.77
72928;SHT30;61071;51.618;19.388;2023-06-10T01:46:21;18.14;78.35
72928;SHT30;61071;51.618;19.388;2023-06-10T01:48:47;18.08;78.45
72928;SHT30;61071;51.618;19.388;2023-06-10T01:51:12;17.95;78.79
72928;SHT30;61071;51.618;19.388;2023-06-10T01:53:38;18.08;78.90
72928;SHT30;61071;51.618;19.388;2023-06-10T01:56:04;18.02;78.36
72928;SHT30;61071;51.618;19.388;2023-06-10T01:58:29;17.99;78.82
72928;SHT30;61071;51.618;19.388;2023-06-10T02:00:55;17.93;78.78
72928;SHT30;61071;51.618;19.388;2023-06-10T02:03:20;17.98;78.83
72928;SHT30;61071;51.618;19.388;2023-06-10T02:05:45;17.98;78.68
72928;SHT30;61071;51.618;19.388;2023-06-10T02:08:11;18.03;78.78
72928;SHT30;61071;51.618;19.388;2023-06-10T02:10:36;17.98;78.97
72928;SHT30;61071;51.618;19.388;2023-06-10T02:13:02;17.98;78.92
72928;SHT30;61071;51.618;19.388;2023-06-10T02:15:27;18.05;79.04
72928;SHT30;61071;51.618;19.388;2023-06-10T02:17:53;18.09;78.85
72928;SHT30;61071;51.618;19.388;2023-06-10T02:20:20;18.25;78.14
72928;SHT30;61071;51.618;19.388;2023-06-10T02:22:46;18.17;78.38
72928;SHT30;61071;51.618;19.388;2023-06-10T02:25:11;18.26;78.12
72928;SHT30;61071;51.618;19.388;2023-06-10T02:27:36;18.06;78.73
72928;SHT30;61071;51.618;19.388;2023-06-10T02:30:02;18.01;78.75
72928;SHT30;61071;51.618;19.388;2023-06-10T02:32:28;18.14;78.33
72928;SHT30;61071;51.618;19.388;2023-06-10T02:34:53;18.22;77.95
72928;SHT30;61071;51.618;19.388;2023-06-10T02:37:19;18.32;77.56
72928;SHT30;61071;51.618;19.388;2023-06-10T02:39:45;18.30;78.00
72928;SHT30;61071;51.618;19.388;2023-06-10T02:42:11;18.26;77.96
72928;SHT30;61071;51.618;19.388;2023-06-10T02:44:37;18.46;77.54
72928;SHT30;61071;51.618;19.388;2023-06-10T02:47:03;18.41;77.67
72928;SHT30;61071;51.618;19.388;2023-06-10T02:49:28;18.37;78.06
72928;SHT30;61071;51.618;19.388;2023-06-10T02:51:54;18.33;78.20
72928;SHT30;61071;51.618;19.388;2023-06-10T02:54:20;18.41;77.65
72928;SHT30;61071;51.618;19.388;2023-06-10T02:56:46;18.30;78.31
72928;SHT30;61071;51.618;19.388;2023-06-10T02:59:13;18.39;77.76
72928;SHT30;61071;51.618;19.388;2023-06-10T03:01:39;18.36;77.95
72928;SHT30;61071;51.618;19.388;2023-06-10T03:04:05;18.40;77.56
72928;SHT30;61071;51.618;19.388;2023-06-10T03:06:31;18.36;77.73
72928;SHT30;61071;51.618;19.388;2023-06-10T03:09:00;18.37;77.85
72928;SHT30;61071;51.618;19.388;2023-06-10T03:11:25;18.44;77.50
72928;SHT30;61071;51.618;19.388;2023-06-10T03:13:51;18.64;76.75
72928;SHT30;61071;51.618;19.388;2023-06-10T03:16:17;18.63;76.83
72928;SHT30;61071;51.618;19.388;2023-06-10T03:18:43;18.75;76.54
72928;SHT30;61071;51.618;19.388;2023-06-10T03:21:09;18.70;76.87
72928;SHT30;61071;51.618;19.388;2023-06-10T03:23:34;18.72;77.23
72928;SHT30;61071;51.618;19.388;2023-06-10T03:26:00;18.79;76.75
72928;SHT30;61071;51.618;19.388;2023-06-10T03:28:25;18.77;76.56
72928;SHT30;61071;51.618;19.388;2023-06-10T03:30:51;18.88;75.67
72928;SHT30;61071;51.618;19.388;2023-06-10T03:33:17;18.63;76.59
72928;SHT30;61071;51.618;19.388;2023-06-10T03:35:42;18.58;76.78
72928;SHT30;61071;51.618;19.388;2023-06-10T03:38:08;18.57;76.62
72928;SHT30;61071;51.618;19.388;2023-06-10T03:40:33;18.40;77.36
72928;SHT30;61071;51.618;19.388;2023-06-10T03:43:00;18.54;76.69
72928;SHT30;61071;51.618;19.388;2023-06-10T03:45:26;18.37;77.10
72928;SHT30;61071;51.618;19.388;2023-06-10T03:47:53;18.23;77.53
72928;SHT30;61071;51.618;19.388;2023-06-10T03:50:19;18.02;78.32
72928;SHT30;61071;51.618;19.388;2023-06-10T03:52:44;18.01;78.28
72928;SHT30;61071;51.618;19.388;2023-06-10T03:55:11;18.10;78.28
72928;SHT30;61071;51.618;19.388;2023-06-10T03:57:39;18.17;78.14
72928;SHT30;61071;51.618;19.388;2023-06-10T04:00:05;18.13;78.08
72928;SHT30;61071;51.618;19.388;2023-06-10T04:02:36;18.20;77.64
72928;SHT30;61071;51.618;19.388;2023-06-10T04:05:02;18.20;77.27
72928;SHT30;61071;51.618;19.388;2023-06-10T04:07:28;18.28;77.05
72928;SHT30;61071;51.618;19.388;2023-06-10T04:09:53;18.23;76.96
72928;SHT30;61071;51.618;19.388;2023-06-10T04:12:19;18.13;77.41
72928;SHT30;61071;51.618;19.388;2023-06-10T04:14:44;18.13;77.49
72928;SHT30;61071;51.618;19.388;2023-06-10T04:17:09;18.22;77.12
72928;SHT30;61071;51.618;19.388;2023-06-10T04:19:35;18.34;76.75
72928;SHT30;61071;51.618;19.388;2023-06-10T04:22:01;18.20;77.22
72928;SHT30;61071;51.618;19.388;2023-06-10T04:24:28;18.16;77.59
72928;SHT30;61071;51.618;19.388;2023-06-10T04:26:54;18.05;77.91
72928;SHT30;61071;51.618;19.388;2023-06-10T04:29:19;18.25;77.57
72928;SHT30;61071;51.618;19.388;2023-06-10T04:31:45;18.39;77.20
72928;SHT30;61071;51.618;19.388;2023-06-10T04:34:12;18.57;76.57
72928;SHT30;61071;51.618;19.388;2023-06-10T04:36:38;18.61;76.11
72928;SHT30;61071;51.618;19.388;2023-06-10T04:39:03;18.54;76.05
72928;SHT30;61071;51.618;19.388;2023-06-10T04:41:29;18.64;76.10
72928;SHT30;61071;51.618;19.388;2023-06-10T04:43:54;18.79;75.41
72928;SHT30;61071;51.618;19.388;2023-06-10T04:46:20;18.60;75.95
72928;SHT30;61071;51.618;19.388;2023-06-10T04:48:45;18.54;75.99
72928;SHT30;61071;51.618;19.388;2023-06-10T04:51:12;18.39;76.69
72928;SHT30;61071;51.618;19.388;2023-06-10T04:53:38;18.61;76.18
72928;SHT30;61071;51.618;19.388;2023-06-10T04:56:04;18.71;76.01
72928;SHT30;61071;51.618;19.388;2023-06-10T04:58:29;18.84;75.71
72928;SHT30;61071;51.618;19.388;2023-06-10T05:00:55;19.16;74.55
72928;SHT30;61071;51.618;19.388;2023-06-10T05:03:20;19.33;74.22
72928;SHT30;61071;51.618;19.388;2023-06-10T05:05:46;19.32;72.92
72928;SHT30;61071;51.618;19.388;2023-06-10T05:08:11;19.15;73.25
72928;SHT30;61071;51.618;19.388;2023-06-10T05:10:36;19.23;72.20
72928;SHT30;61071;51.618;19.388;2023-06-10T05:13:02;18.95;72.86
72928;SHT30;61071;51.618;19.388;2023-06-10T05:15:28;19.11;71.94
72928;SHT30;61071;51.618;19.388;2023-06-10T05:17:55;19.14;71.41
72928;SHT30;61071;51.618;19.388;2023-06-10T05:20:21;19.14;70.76
72928;SHT30;61071;51.618;19.388;2023-06-10T05:22:46;19.16;70.16
72928;SHT30;61071;51.618;19.388;2023-06-10T05:25:12;19.27;69.28
72928;SHT30;61071;51.618;19.388;2023-06-10T05:27:37;19.33;69.29
72928;SHT30;61071;51.618;19.388;2023-06-10T05:30:03;19.42;68.35
72928;SHT30;61071;51.618;19.388;2023-06-10T05:32:29;19.52;68.90
72928;SHT30;61071;51.618;19.388;2023-06-10T05:34:54;19.63;67.59
72928;SHT30;61071;51.618;19.388;2023-06-10T05:37:20;19.77;67.76
72928;SHT30;61071;51.618;19.388;2023-06-10T05:39:45;19.94;66.68
72928;SHT30;61071;51.618;19.388;2023-06-10T05:42:11;20.02;65.46
72928;SHT30;61071;51.618;19.388;2023-06-10T05:44:36;20.29;64.49
72928;SHT30;61071;51.618;19.388;2023-06-10T05:47:02;21.12;62.74
72928;SHT30;61071;51.618;19.388;2023-06-10T05:49:31;22.69;57.93
72928;SHT30;61071;51.618;19.388;2023-06-10T05:51:56;23.90;52.38
72928;SHT30;61071;51.618;19.388;2023-06-10T05:54:23;24.59;50.23
72928;SHT30;61071;51.618;19.388;2023-06-10T05:56:49;25.21;49.85
72928;SHT30;61071;51.618;19.388;2023-06-10T05:59:14;26.17;48.12
72928;SHT30;61071;51.618;19.388;2023-06-10T06:01:39;26.49;47.40
72928;SHT30;61071;51.618;19.388;2023-06-10T06:04:05;25.51;47.63
72928;SHT30;61071;51.618;19.388;2023-06-10T06:06:30;24.96;48.35
72928;SHT30;61071;51.618;19.388;2023-06-10T06:08:56;25.26;49.40
72928;SHT30;61071;51.618;19.388;2023-06-10T06:11:21;25.83;48.78
72928;SHT30;61071;51.618;19.388;2023-06-10T06:13:47;26.28;46.05
72928;SHT30;61071;51.618;19.388;2023-06-10T06:16:13;25.42;48.17
72928;SHT30;61071;51.618;19.388;2023-06-10T06:18:39;23.71;51.41
72928;SHT30;61071;51.618;19.388;2023-06-10T06:21:04;23.00;54.60
72928;SHT30;61071;51.618;19.388;2023-06-10T06:23:29;22.68;54.81
72928;SHT30;61071;51.618;19.388;2023-06-10T06:25:55;22.17;56.30
72928;SHT30;61071;51.618;19.388;2023-06-10T06:28:21;21.93;56.71
72928;SHT30;61071;51.618;19.388;2023-06-10T06:30:47;21.45;57.25
72928;SHT30;61071;51.618;19.388;2023-06-10T06:33:13;21.56;58.73
72928;SHT30;61071;51.618;19.388;2023-06-10T06:35:38;21.73;56.98
72928;SHT30;61071;51.618;19.388;2023-06-10T06:38:04;22.13;57.87
72928;SHT30;61071;51.618;19.388;2023-06-10T06:40:30;22.01;58.28
72928;SHT30;61071;51.618;19.388;2023-06-10T06:42:55;21.67;58.10
72928;SHT30;61071;51.618;19.388;2023-06-10T06:45:21;21.99;56.93
72928;SHT30;61071;51.618;19.388;2023-06-10T06:47:46;22.03;57.62
72928;SHT30;61071;51.618;19.388;2023-06-10T06:50:12;21.69;57.88
72928;SHT30;61071;51.618;19.388;2023-06-10T06:52:37;21.76;58.41
72928;SHT30;61071;51.618;19.388;2023-06-10T06:55:03;21.55;59.03
72928;SHT30;61071;51.618;19.388;2023-06-10T06:57:28;21.76;58.94
72928;SHT30;61071;51.618;19.388;2023-06-10T06:59:53;21.80;58.69
72928;SHT30;61071;51.618;19.388;2023-06-10T07:02:19;22.16;59.68
72928;SHT30;61071;51.618;19.388;2023-06-10T07:04:45;22.27;60.00
72928;SHT30;61071;51.618;19.388;2023-06-10T07:07:12;22.51;57.40
72928;SHT30;61071;51.618;19.388;2023-06-10T07:09:38;22.55;57.13
72928;SHT30;61071;51.618;19.388;2023-06-10T07:12:04;22.49;57.34
72928;SHT30;61071;51.618;19.388;2023-06-10T07:14:30;22.27;57.59
72928;SHT30;61071;51.618;19.388;2023-06-10T07:16:56;22.55;57.89
72928;SHT30;61071;51.618;19.388;2023-06-10T07:19:21;22.41;57.83
72928;SHT30;61071;51.618;19.388;2023-06-10T07:21:47;22.33;58.06
72928;SHT30;61071;51.618;19.388;2023-06-10T07:24:13;22.13;57.56
72928;SHT30;61071;51.618;19.388;2023-06-10T07:26:38;22.47;57.74
72928;SHT30;61071;51.618;19.388;2023-06-10T07:29:03;22.72;58.33
72928;SHT30;61071;51.618;19.388;2023-06-10T07:31:29;22.92;57.39
72928;SHT30;61071;51.618;19.388;2023-06-10T07:33:54;22.71;55.68
72928;SHT30;61071;51.618;19.388;2023-06-10T07:36:20;22.71;57.27
72928;SHT30;61071;51.618;19.388;2023-06-10T07:38:45;22.56;56.59
72928;SHT30;61071;51.618;19.388;2023-06-10T07:41:10;22.92;55.41
72928;SHT30;61071;51.618;19.388;2023-06-10T07:43:37;22.83;55.98
72928;SHT30;61071;51.618;19.388;2023-06-10T07:46:03;22.89;56.65
72928;SHT30;61071;51.618;19.388;2023-06-10T07:48:30;23.41;57.36
72928;SHT30;61071;51.618;19.388;2023-06-10T07:50:56;23.44;55.43
72928;SHT30;61071;51.618;19.388;2023-06-10T07:53:21;23.53;54.26
72928;SHT30;61071;51.618;19.388;2023-06-10T07:55:47;23.43;56.30
72928;SHT30;61071;51.618;19.388;2023-06-10T07:58:12;23.16;54.83
72928;SHT30;61071;51.618;19.388;2023-06-10T08:00:37;23.06;56.14
72928;SHT30;61071;51.618;19.388;2023-06-10T08:03:03;23.17;55.13
72928;SHT30;61071;51.618;19.388;2023-06-10T08:05:28;22.96;55.30
72928;SHT30;61071;51.618;19.388;2023-06-10T08:07:54;23.09;54.40
72928;SHT30;61071;51.618;19.388;2023-06-10T08:10:20;23.07;55.63
72928;SHT30;61071;51.618;19.388;2023-06-10T08:12:45;23.41;55.43
72928;SHT30;61071;51.618;19.388;2023-06-10T08:15:11;23.57;55.15
72928;SHT30;61071;51.618;19.388;2023-06-10T08:17:37;23.71;54.09
72928;SHT30;61071;51.618;19.388;2023-06-10T08:20:04;23.90;53.71
72928;SHT30;61071;51.618;19.388;2023-06-10T08:22:31;24.01;53.51
72928;SHT30;61071;51.618;19.388;2023-06-10T08:24:56;24.08;53.18
72928;SHT30;61071;51.618;19.388;2023-06-10T08:27:22;23.74;53.72
72928;SHT30;61071;51.618;19.388;2023-06-10T08:29:47;23.81;54.27
72928;SHT30;61071;51.618;19.388;2023-06-10T08:32:12;23.47;52.85
72928;SHT30;61071;51.618;19.388;2023-06-10T08:34:38;23.58;53.93
72928;SHT30;61071;51.618;19.388;2023-06-10T08:37:04;23.85;54.69
72928;SHT30;61071;51.618;19.388;2023-06-10T08:39:30;24.06;52.42
72928;SHT30;61071;51.618;19.388;2023-06-10T08:42:24;24.22;52.32
72928;SHT30;61071;51.618;19.388;2023-06-10T08:44:55;24.01;51.55
72928;SHT30;61071;51.618;19.388;2023-06-10T08:47:24;24.27;50.11
72928;SHT30;61071;51.618;19.388;2023-06-10T08:49:51;24.09;50.25
72928;SHT30;61071;51.618;19.388;2023-06-10T08:52:20;24.06;52.00
72928;SHT30;61071;51.618;19.388;2023-06-10T08:54:56;24.10;51.38
72928;SHT30;61071;51.618;19.388;2023-06-10T08:57:22;24.47;50.63
72928;SHT30;61071;51.618;19.388;2023-06-10T08:59:49;24.29;52.06
72928;SHT30;61071;51.618;19.388;2023-06-10T09:02:15;24.78;51.03
72928;SHT30;61071;51.618;19.388;2023-06-10T09:04:44;24.54;50.28
72928;SHT30;61071;51.618;19.388;2023-06-10T09:07:11;24.54;50.22
72928;SHT30;61071;51.618;19.388;2023-06-10T09:09:38;24.22;50.53
72928;SHT30;61071;51.618;19.388;2023-06-10T09:12:04;24.43;50.81
72928;SHT30;61071;51.618;19.388;2023-06-10T09:14:29;24.54;50.03
72928;SHT30;61071;51.618;19.388;2023-06-10T09:16:55;24.26;49.74
72928;SHT30;61071;51.618;19.388;2023-06-10T09:19:26;24.54;49.38
72928;SHT30;61071;51.618;19.388;2023-06-10T09:21:52;24.65;49.29
72928;SHT30;61071;51.618;19.388;2023-06-10T09:24:18;24.63;48.85
72928;SHT30;61071;51.618;19.388;2023-06-10T09:26:43;24.75;50.65
72928;SHT30;61071;51.618;19.388;2023-06-10T09:29:11;24.80;47.06
72928;SHT30;61071;51.618;19.388;2023-06-10T09:31:39;24.87;46.62
72928;SHT30;61071;51.618;19.388;2023-06-10T09:34:14;25.04;46.53
72928;SHT30;61071;51.618;19.388;2023-06-10T09:36:41;25.21;46.34
72928;SHT30;61071;51.618;19.388;2023-06-10T09:39:24;25.15;45.28
72928;SHT30;61071;51.618;19.388;2023-06-10T09:41:50;24.98;42.02
72928;SHT30;61071;51.618;19.388;2023-06-10T09:44:17;25.23;39.72
72928;SHT30;61071;51.618;19.388;2023-06-10T09:46:47;25.15;39.51
72928;SHT30;61071;51.618;19.388;2023-06-10T09:49:13;24.91;39.73
72928;SHT30;61071;51.618;19.388;2023-06-10T09:51:50;24.91;37.44
72928;SHT30;61071;51.618;19.388;2023-06-10T09:54:16;24.91;36.04
72928;SHT30;61071;51.618;19.388;2023-06-10T09:56:41;25.07;36.28
72928;SHT30;61071;51.618;19.388;2023-06-10T09:59:08;25.16;38.24
72928;SHT30;61071;51.618;19.388;2023-06-10T10:01:34;25.36;36.63
72928;SHT30;61071;51.618;19.388;2023-06-10T10:03:59;25.01;36.80
72928;SHT30;61071;51.618;19.388;2023-06-10T10:06:26;25.14;37.05
72928;SHT30;61071;51.618;19.388;2023-06-10T10:08:52;25.36;37.74
72928;SHT30;61071;51.618;19.388;2023-06-10T10:11:20;25.51;35.43
72928;SHT30;61071;51.618;19.388;2023-06-10T10:13:49;25.53;35.99
72928;SHT30;61071;51.618;19.388;2023-06-10T10:16:19;25.40;36.85
72928;SHT30;61071;51.618;19.388;2023-06-10T10:18:52;25.67;35.88
72928;SHT30;61071;51.618;19.388;2023-06-10T10:21:24;25.73;35.93
72928;SHT30;61071;51.618;19.388;2023-06-10T10:24:03;25.71;33.50
72928;SHT30;61071;51.618;19.388;2023-06-10T10:26:31;25.73;35.42
72928;SHT30;61071;51.618;19.388;2023-06-10T10:29:10;25.38;32.10
72928;SHT30;61071;51.618;19.388;2023-06-10T10:31:39;25.57;31.41
72928;SHT30;61071;51.618;19.388;2023-06-10T10:34:15;25.67;31.43
72928;SHT30;61071;51.618;19.388;2023-06-10T10:36:42;25.47;31.86
72928;SHT30;61071;51.618;19.388;2023-06-10T10:39:08;25.53;31.54
72928;SHT30;61071;51.618;19.388;2023-06-10T10:41:36;25.53;28.14
72928;SHT30;61071;51.618;19.388;2023-06-10T10:44:03;25.59;29.18
72928;SHT30;61071;51.618;19.388;2023-06-10T10:46:45;25.56;26.53
72928;SHT30;61071;51.618;19.388;2023-06-10T10:49:15;25.50;27.30
72928;SHT30;61071;51.618;19.388;2023-06-10T10:52:01;25.66;24.45
72928;SHT30;61071;51.618;19.388;2023-06-10T10:54:32;25.53;23.74
72928;SHT30;61071;51.618;19.388;2023-06-10T10:57:17;25.40;26.66
72928;SHT30;61071;51.618;19.388;2023-06-10T11:02:33;25.57;28.29
72928;SHT30;61071;51.618;19.388;2023-06-10T11:05:00;25.88;27.10
72928;SHT30;61071;51.618;19.388;2023-06-10T11:07:25;25.69;28.15
72928;SHT30;61071;51.618;19.388;2023-06-10T11:10:02;25.98;29.28
72928;SHT30;61071;51.618;19.388;2023-06-10T11:12:50;25.91;29.18
72928;SHT30;61071;51.618;19.388;2023-06-10T11:15:26;25.84;29.10
72928;SHT30;61071;51.618;19.388;2023-06-10T11:20:57;26.05;28.61
72928;SHT30;61071;51.618;19.388;2023-06-10T11:31:26;26.26;27.88
72928;SHT30;61071;51.618;19.388;2023-06-10T11:33:55;26.45;27.33
72928;SHT30;61071;51.618;19.388;2023-06-10T11:36:21;26.21;27.16
72928;SHT30;61071;51.618;19.388;2023-06-10T11:38:48;26.02;27.74
72928;SHT30;61071;51.618;19.388;2023-06-10T11:41:14;26.08;28.69
72928;SHT30;61071;51.618;19.388;2023-06-10T11:43:44;25.77;27.82
72928;SHT30;61071;51.618;19.388;2023-06-10T11:46:14;25.81;26.87
72928;SHT30;61071;51.618;19.388;2023-06-10T11:48:52;25.50;27.43
72928;SHT30;61071;51.618;19.388;2023-06-10T11:51:18;25.46;27.03
72928;SHT30;61071;51.618;19.388;2023-06-10T11:53:50;25.35;27.60
72928;SHT30;61071;51.618;19.388;2023-06-10T11:56:26;25.53;28.87
72928;SHT30;61071;51.618;19.388;2023-06-10T11:59:06;25.60;28.22
72928;SHT30;61071;51.618;19.388;2023-06-10T12:01:36;25.63;29.23
72928;SHT30;61071;51.618;19.388;2023-06-10T12:04:11;26.00;25.30
72928;SHT30;61071;51.618;19.388;2023-06-10T12:06:42;26.07;26.88
72928;SHT30;61071;51.618;19.388;2023-06-10T12:09:21;26.11;28.17
72928;SHT30;61071;51.618;19.388;2023-06-10T12:11:58;26.09;28.99
72928;SHT30;61071;51.618;19.388;2023-06-10T12:14:59;26.05;28.62
72928;SHT30;61071;51.618;19.388;2023-06-10T12:19:57;25.70;26.67
72928;SHT30;61071;51.618;19.388;2023-06-10T12:22:22;25.88;25.73
72928;SHT30;61071;51.618;19.388;2023-06-10T12:25:03;25.90;27.96
72928;SHT30;61071;51.618;19.388;2023-06-10T12:27:30;25.93;28.35
72928;SHT30;61071;51.618;19.388;2023-06-10T12:29:58;26.07;29.03
72928;SHT30;61071;51.618;19.388;2023-06-10T12:32:44;26.36;28.52
72928;SHT30;61071;51.618;19.388;2023-06-10T12:35:12;26.35;28.46
72928;SHT30;61071;51.618;19.388;2023-06-10T12:37:39;26.25;27.37
72928;SHT30;61071;51.618;19.388;2023-06-10T12:40:06;26.17;27.85
72928;SHT30;61071;51.618;19.388;2023-06-10T12:42:33;26.09;28.03
72928;SHT30;61071;51.618;19.388;2023-06-10T12:45:01;25.77;26.35
72928;SHT30;61071;51.618;19.388;2023-06-10T12:47:35;25.98;27.95
72928;SHT30;61071;51.618;19.388;2023-06-10T12:50:02;25.97;27.90
72928;SHT30;61071;51.618;19.388;2023-06-10T12:52:28;26.09;28.17
72928;SHT30;61071;51.618;19.388;2023-06-10T12:54:54;26.24;28.27
72928;SHT30;61071;51.618;19.388;2023-06-10T12:57:23;25.94;28.84
72928;SHT30;61071;51.618;19.388;2023-06-10T12:59:48;25.81;28.29
72928;SHT30;61071;51.618;19.388;2023-06-10T13:02:19;26.07;28.36
72928;SHT30;61071;51.618;19.388;2023-06-10T13:04:46;25.97;28.25
72928;SHT30;61071;51.618;19.388;2023-06-10T13:07:12;26.18;29.45
72928;SHT30;61071;51.618;19.388;2023-06-10T13:09:37;26.09;28.61
72928;SHT30;61071;51.618;19.388;2023-06-10T13:12:03;26.22;28.78
72928;SHT30;61071;51.618;19.388;2023-06-10T13:14:29;26.29;27.46
72928;SHT30;61071;51.618;19.388;2023-06-10T13:16:55;26.04;28.11
72928;SHT30;61071;51.618;19.388;2023-06-10T13:19:21;25.86;29.47
72928;SHT30;61071;51.618;19.388;2023-06-10T13:21:49;25.95;29.68
72928;SHT30;61071;51.618;19.388;2023-06-10T13:24:15;26.00;29.85
72928;SHT30;61071;51.618;19.388;2023-06-10T13:26:40;26.14;31.32
72928;SHT30;61071;51.618;19.388;2023-06-10T13:29:06;26.02;30.40
72928;SHT30;61071;51.618;19.388;2023-06-10T13:31:33;25.54;31.36
72928;SHT30;61071;51.618;19.388;2023-06-10T13:33:59;25.67;32.96
72928;SHT30;61071;51.618;19.388;2023-06-10T13:36:24;25.47;31.28
72928;SHT30;61071;51.618;19.388;2023-06-10T13:38:49;25.32;31.44
72928;SHT30;61071;51.618;19.388;2023-06-10T13:41:15;25.65;31.65
72928;SHT30;61071;51.618;19.388;2023-06-10T13:43:41;25.76;32.19
72928;SHT30;61071;51.618;19.388;2023-06-10T13:46:06;25.69;31.28
72928;SHT30;61071;51.618;19.388;2023-06-10T13:48:32;25.73;31.58
72928;SHT30;61071;51.618;19.388;2023-06-10T13:50:57;25.87;31.96
72928;SHT30;61071;51.618;19.388;2023-06-10T13:53:24;25.84;32.80
72928;SHT30;61071;51.618;19.388;2023-06-10T13:55:50;25.91;32.51
72928;SHT30;61071;51.618;19.388;2023-06-10T13:58:15;25.69;30.87
72928;SHT30;61071;51.618;19.388;2023-06-10T14:00:41;25.43;32.19
72928;SHT30;61071;51.618;19.388;2023-06-10T14:03:06;25.39;32.53
72928;SHT30;61071;51.618;19.388;2023-06-10T14:05:31;25.45;30.94
72928;SHT30;61071;51.618;19.388;2023-06-10T14:07:58;25.42;31.91
72928;SHT30;61071;51.618;19.388;2023-06-10T14:10:23;25.39;32.07
72928;SHT30;61071;51.618;19.388;2023-06-10T14:12:49;25.46;33.34
72928;SHT30;61071;51.618;19.388;2023-06-10T14:15:15;25.57;32.26
72928;SHT30;61071;51.618;19.388;2023-06-10T14:17:40;25.35;32.43
72928;SHT30;61071;51.618;19.388;2023-06-10T14:20:06;25.66;32.83
72928;SHT30;61071;51.618;19.388;2023-06-10T14:22:32;25.74;31.42
72928;SHT30;61071;51.618;19.388;2023-06-10T14:24:57;25.65;31.78
72928;SHT30;61071;51.618;19.388;2023-06-10T14:27:23;25.65;31.00
72928;SHT30;61071;51.618;19.388;2023-06-10T14:29:48;25.65;32.03
72928;SHT30;61071;51.618;19.388;2023-06-10T14:32:13;25.53;31.88
72928;SHT30;61071;51.618;19.388;2023-06-10T14:34:39;25.33;30.64
72928;SHT30;61071;51.618;19.388;2023-06-10T14:37:06;25.30;31.88
72928;SHT30;61071;51.618;19.388;2023-06-10T14:39:33;25.30;32.39
72928;SHT30;61071;51.618;19.388;2023-06-10T14:41:58;25.54;32.47
72928;SHT30;61071;51.618;19.388;2023-06-10T14:44:24;25.36;31.22
72928;SHT30;61071;51.618;19.388;2023-06-10T14:46:49;25.57;31.61
72928;SHT30;61071;51.618;19.388;2023-06-10T14:49:15;25.67;31.70
72928;SHT30;61071;51.618;19.388;2023-06-10T14:51:40;25.71;30.98
72928;SHT30;61071;51.618;19.388;2023-06-10T14:54:05;25.50;31.53
72928;SHT30;61071;51.618;19.388;2023-06-10T14:56:31;25.62;33.81
72928;SHT30;61071;51.618;19.388;2023-06-10T14:58:56;25.70;32.21
72928;SHT30;61071;51.618;19.388;2023-06-10T15:01:21;25.53;31.80
72928;SHT30;61071;51.618;19.388;2023-06-10T15:03:47;25.62;30.37
72928;SHT30;61071;51.618;19.388;2023-06-10T15:06:13;25.49;31.45
72928;SHT30;61071;51.618;19.388;2023-06-10T15:08:38;25.54;31.57
72928;SHT30;61071;51.618;19.388;2023-06-10T15:11:03;25.74;31.09
72928;SHT30;61071;51.618;19.388;2023-06-10T15:13:29;25.53;31.02
72928;SHT30;61071;51.618;19.388;2023-06-10T15:15:54;25.32;30.68
72928;SHT30;61071;51.618;19.388;2023-06-10T15:18:21;25.30;30.86
72928;SHT30;61071;51.618;19.388;2023-06-10T15:20:46;25.19;29.38
72928;SHT30;61071;51.618;19.388;2023-06-10T15:23:11;25.19;29.80
72928;SHT30;61071;51.618;19.388;2023-06-10T15:25:37;25.19;30.02
72928;SHT30;61071;51.618;19.388;2023-06-10T15:28:02;25.38;29.01
72928;SHT30;61071;51.618;19.388;2023-06-10T15:30:28;25.57;28.06
72928;SHT30;61071;51.618;19.388;2023-06-10T15:32:54;25.50;29.13
72928;SHT30;61071;51.618;19.388;2023-06-10T15:35:19;25.35;28.41